createdAt,value
2019-04-06T00:02:19.686Z,31.50
2019-04-06T00:04:48.914Z,36.77
2019-04-06T00:07:18.276Z,37.13
2019-04-06T00:09:47.570Z,36.33
2019-04-06T00:12:17.143Z,34.33
2019-04-06T00:14:46.526Z,31.73
2019-04-06T00:17:16.070Z,32.60
2019-04-06T00:19:45.521Z,32.90
2019-04-06T00:22:14.901Z,29.95
2019-04-06T00:24:44.323Z,32.57
2019-04-06T00:27:13.911Z,31.33
2019-04-06T00:29:43.427Z,29.63
2019-04-06T00:32:33.738Z,30.08
2019-04-06T00:35:03.419Z,27.48
2019-04-06T00:37:32.745Z,29.48
2019-04-06T00:40:05.453Z,29.43
2019-04-06T00:42:34.885Z,25.30
2019-04-06T00:45:04.573Z,29.18
2019-04-06T00:47:34.042Z,28.75
2019-04-06T00:50:03.659Z,26.82
2019-04-06T00:52:33.009Z,26.90
2019-04-06T00:55:02.276Z,26.40
2019-04-06T00:57:31.864Z,25.73
2019-04-06T01:00:01.221Z,30.77
2019-04-06T01:02:30.926Z,28.52
2019-04-06T01:05:00.233Z,24.65
2019-04-06T01:07:29.779Z,28.57
2019-04-06T01:09:59.302Z,25.12
2019-04-06T01:12:29.052Z,29.48
2019-04-06T01:14:58.549Z,25.10
2019-04-06T01:17:27.870Z,25.23
2019-04-06T01:19:57.121Z,24.63
2019-04-06T01:22:26.539Z,24.17
2019-04-06T01:24:55.809Z,26.25
2019-04-06T01:27:25.518Z,24.20
2019-04-06T01:29:54.935Z,24.23
2019-04-06T01:32:24.300Z,26.37
2019-04-06T01:34:54.021Z,21.47
2019-04-06T01:37:23.620Z,22.07
2019-04-06T01:39:53.023Z,25.50
2019-04-06T01:42:22.613Z,24.40
2019-04-06T01:44:52.530Z,27.10
2019-04-06T01:47:33.028Z,20.05
2019-04-06T01:50:02.577Z,22.27
2019-04-06T01:52:32.476Z,26.02
2019-04-06T01:55:01.772Z,22.65
2019-04-06T01:57:31.361Z,22.17
2019-04-06T02:00:00.910Z,22.45
2019-04-06T02:02:32.981Z,21.05
2019-04-06T02:05:02.525Z,22.32
2019-04-06T02:07:32.119Z,23.67
2019-04-06T02:10:01.751Z,20.17
2019-04-06T02:12:31.570Z,21.52
2019-04-06T02:15:01.106Z,22.40
2019-04-06T02:17:30.595Z,20.85
2019-04-06T02:20:00.205Z,24.57
2019-04-06T02:22:29.546Z,21.02
2019-04-06T02:24:58.944Z,23.00
2019-04-06T02:27:28.436Z,23.87
2019-04-06T02:30:15.996Z,25.17
2019-04-06T02:33:10.432Z,22.80
2019-04-06T02:35:46.463Z,21.77
2019-04-06T02:38:40.471Z,22.20
2019-04-06T02:41:31.705Z,23.20
2019-04-06T02:44:01.139Z,24.52
2019-04-06T02:46:31.414Z,24.20
2019-04-06T02:49:01.193Z,23.70
2019-04-06T02:51:30.797Z,25.75
2019-04-06T02:54:00.173Z,23.45
2019-04-06T02:56:44.282Z,21.55
2019-04-06T02:59:01.213Z,23.98
2019-04-06T03:01:30.798Z,24.07
2019-04-06T03:04:00.739Z,24.47
2019-04-06T03:06:30.375Z,23.77
2019-04-06T03:08:59.927Z,24.85
2019-04-06T03:11:29.469Z,23.40
2019-04-06T03:13:58.989Z,23.57
2019-04-06T03:16:28.240Z,25.23
2019-04-06T03:18:57.529Z,26.45
2019-04-06T03:21:27.103Z,22.43
2019-04-06T03:23:56.403Z,25.97
2019-04-06T03:26:26.316Z,26.10
2019-04-06T03:28:55.867Z,23.52
2019-04-06T03:31:27.999Z,26.12
2019-04-06T03:33:57.877Z,26.42
2019-04-06T03:36:27.260Z,24.37
2019-04-06T03:38:56.874Z,24.27
2019-04-06T03:41:26.327Z,27.70
2019-04-06T03:43:55.688Z,27.13
2019-04-06T03:46:25.050Z,24.67
2019-04-06T03:48:54.527Z,24.83
2019-04-06T03:51:23.751Z,26.48
2019-04-06T03:53:53.240Z,27.37
2019-04-06T03:56:22.524Z,24.80
2019-04-06T03:58:52.348Z,27.10
2019-04-06T04:01:22.170Z,26.55
2019-04-06T04:03:51.582Z,25.90
2019-04-06T04:06:21.382Z,25.87
2019-04-06T04:08:53.121Z,26.35
2019-04-06T04:11:22.503Z,27.45
2019-04-06T04:13:52.004Z,26.10
2019-04-06T04:16:23.572Z,25.05
2019-04-06T04:18:52.973Z,25.75
2019-04-06T04:21:22.255Z,28.23
2019-04-06T04:23:51.902Z,26.03
2019-04-06T04:26:23.394Z,28.30
2019-04-06T04:28:52.743Z,25.82
2019-04-06T04:31:22.225Z,25.90
2019-04-06T04:33:51.572Z,25.10
2019-04-06T04:36:20.934Z,26.47
2019-04-06T04:38:50.402Z,28.83
2019-04-06T04:41:19.945Z,27.07
2019-04-06T04:43:49.280Z,27.70
2019-04-06T04:46:18.729Z,26.10
2019-04-06T04:48:48.032Z,27.25
2019-04-06T04:51:17.265Z,25.37
2019-04-06T04:53:47.248Z,25.23
2019-04-06T04:56:16.617Z,28.27
2019-04-06T04:58:46.159Z,25.52
2019-04-06T05:01:15.407Z,27.87
2019-04-06T05:03:44.741Z,25.50
2019-04-06T05:06:14.172Z,25.30
2019-04-06T05:08:43.726Z,25.55
2019-04-06T05:11:13.145Z,27.10
2019-04-06T05:13:42.656Z,25.50
2019-04-06T05:16:13.229Z,24.45
2019-04-06T05:18:43.595Z,25.35
2019-04-06T05:23:41.680Z,24.45
2019-04-06T05:26:11.340Z,26.12
2019-04-06T05:28:40.667Z,26.00
2019-04-06T05:31:10.007Z,25.73
2019-04-06T05:33:39.428Z,25.97
2019-04-06T05:36:08.886Z,27.22
2019-04-06T05:38:38.278Z,27.02
2019-04-06T05:41:07.658Z,26.73
2019-04-06T05:43:36.822Z,26.47
2019-04-06T05:46:05.953Z,26.35
2019-04-06T05:48:36.985Z,30.88
2019-04-06T05:51:09.731Z,28.12
2019-04-06T05:53:38.961Z,28.92
2019-04-06T05:56:08.143Z,26.95
2019-04-06T05:58:39.929Z,30.43
2019-04-06T06:01:10.262Z,27.58
2019-04-06T06:03:41.107Z,28.00
2019-04-06T06:06:12.497Z,25.32
2019-04-06T06:08:41.314Z,29.32
2019-04-06T06:11:10.778Z,28.35
2019-04-06T06:13:40.012Z,27.93
2019-04-06T06:16:11.521Z,28.00
2019-04-06T06:18:40.371Z,27.40
2019-04-06T06:21:09.715Z,27.35
2019-04-06T06:23:39.021Z,27.58
2019-04-06T06:26:08.362Z,26.12
2019-04-06T06:28:37.603Z,27.80
2019-04-06T06:31:06.832Z,29.07
2019-04-06T06:33:36.320Z,33.02
2019-04-06T06:36:05.578Z,29.77
2019-04-06T06:38:35.483Z,30.90
2019-04-06T06:41:04.747Z,26.30
2019-04-06T06:43:34.142Z,32.47
2019-04-06T06:46:03.859Z,30.43
2019-04-06T06:48:33.099Z,30.05
2019-04-06T06:51:02.355Z,26.33
2019-04-06T06:53:31.980Z,31.27
2019-04-06T06:56:01.360Z,29.95
2019-04-06T06:58:30.855Z,30.62
2019-04-06T07:01:00.117Z,28.30
2019-04-06T07:03:29.511Z,28.55
2019-04-06T07:05:58.963Z,29.00
2019-04-06T07:08:28.190Z,29.12
2019-04-06T07:10:57.469Z,27.73
2019-04-06T07:13:27.845Z,30.60
2019-04-06T07:15:57.131Z,28.35
2019-04-06T07:18:26.385Z,31.73
2019-04-06T07:20:55.728Z,27.97
2019-04-06T07:23:24.939Z,30.82
2019-04-06T07:25:58.531Z,30.25
2019-04-06T07:28:36.390Z,28.67
2019-04-06T07:30:56.370Z,27.00
2019-04-06T07:33:25.755Z,29.07
2019-04-06T07:35:54.875Z,29.83
2019-04-06T07:38:24.065Z,27.10
2019-04-06T07:40:53.266Z,27.98
2019-04-06T07:43:22.505Z,30.82
2019-04-06T07:45:51.865Z,31.77
2019-04-06T07:48:21.537Z,27.58
2019-04-06T07:50:50.732Z,29.87
2019-04-06T07:53:19.923Z,30.90
2019-04-06T07:55:48.978Z,28.73
2019-04-06T07:58:18.137Z,28.45
2019-04-06T08:00:51.038Z,26.60
2019-04-06T08:03:20.367Z,28.67
2019-04-06T08:05:49.790Z,28.43
2019-04-06T08:08:19.584Z,31.60
2019-04-06T08:10:49.200Z,32.03
2019-04-06T08:13:18.418Z,30.10
2019-04-06T08:15:47.899Z,30.87
2019-04-06T08:18:17.033Z,28.52
2019-04-06T08:20:46.273Z,28.77
2019-04-06T08:23:15.622Z,27.73
2019-04-06T08:25:45.043Z,28.23
2019-04-06T08:28:14.325Z,31.07
2019-04-06T08:30:45.990Z,29.33
2019-04-06T08:33:14.832Z,29.00
2019-04-06T08:35:43.916Z,29.67
2019-04-06T08:38:13.353Z,30.57
2019-04-06T08:40:42.897Z,30.15
2019-04-06T08:43:12.611Z,28.17
2019-04-06T08:45:41.891Z,29.50
2019-04-06T08:48:11.319Z,28.63
2019-04-06T08:50:40.841Z,30.30
2019-04-06T08:53:10.220Z,26.75
2019-04-06T08:55:39.354Z,30.62
2019-04-06T08:58:08.861Z,26.45
2019-04-06T09:00:41.229Z,28.07
2019-04-06T09:03:12.769Z,26.77
2019-04-06T09:05:42.029Z,29.52
2019-04-06T09:08:11.375Z,27.30
2019-04-06T09:10:40.633Z,26.23
2019-04-06T09:13:10.154Z,28.70
2019-04-06T09:15:39.484Z,26.30
2019-04-06T09:18:08.724Z,25.67
2019-04-06T09:20:37.919Z,25.67
2019-04-06T09:23:07.095Z,28.63
2019-04-06T09:25:36.521Z,26.53
2019-04-06T09:28:07.601Z,25.23
2019-04-06T09:30:37.202Z,24.70
2019-04-06T09:33:06.559Z,26.30
2019-04-06T09:35:35.847Z,24.80
2019-04-06T09:38:05.250Z,25.17
2019-04-06T09:40:36.900Z,26.68
2019-04-06T09:43:06.408Z,25.80
2019-04-06T09:45:54.796Z,26.35
2019-04-06T09:48:48.753Z,27.87
2019-04-06T09:51:29.220Z,26.12
2019-04-06T09:54:26.853Z,24.98
2019-04-06T09:57:04.308Z,24.70
2019-04-06T09:59:51.784Z,26.75
2019-04-06T10:02:40.070Z,23.07
2019-04-06T10:05:27.943Z,21.12
2019-04-06T10:08:25.146Z,27.45
2019-04-06T10:11:19.434Z,23.70
2019-04-06T10:14:11.038Z,25.08
2019-04-06T10:16:58.249Z,24.52
2019-04-06T10:19:54.283Z,22.90
2019-04-06T10:22:42.048Z,20.97
2019-04-06T10:25:42.582Z,23.55
2019-04-06T10:28:42.943Z,22.52
2019-04-06T10:31:29.782Z,21.30
2019-04-06T10:34:36.190Z,23.85
2019-04-06T10:37:24.876Z,23.35
2019-04-06T10:40:04.239Z,20.55
2019-04-06T10:42:52.804Z,22.58
2019-04-06T10:45:28.106Z,21.95
2019-04-06T10:48:23.323Z,20.75
2019-04-06T10:51:04.200Z,22.07
2019-04-06T10:53:58.676Z,22.70
2019-04-06T10:56:42.428Z,21.95
2019-04-06T10:59:42.989Z,21.20
2019-04-06T11:02:30.163Z,23.42
2019-04-06T11:05:11.333Z,22.60
2019-04-06T11:07:55.121Z,20.23
2019-04-06T11:10:42.184Z,22.70
2019-04-06T11:13:20.749Z,22.02
2019-04-06T11:16:10.311Z,20.43
2019-04-06T11:19:10.730Z,22.48
2019-04-06T11:22:09.893Z,21.17
2019-04-06T11:25:06.301Z,23.60
2019-04-06T11:27:57.369Z,23.55
2019-04-06T11:30:48.880Z,21.68
2019-04-06T11:33:55.434Z,20.72
2019-04-06T11:36:45.258Z,21.95
2019-04-06T11:39:39.514Z,22.17
2019-04-06T11:42:31.446Z,24.72
2019-04-06T11:45:05.568Z,21.27
2019-04-06T11:47:52.558Z,23.02
2019-04-06T11:50:32.556Z,21.90
2019-04-06T11:56:00.890Z,23.40
2019-04-06T11:58:35.925Z,23.92
2019-04-06T12:01:11.077Z,23.47
2019-04-06T12:03:53.203Z,22.27
2019-04-06T12:06:41.015Z,22.87
2019-04-06T12:09:38.349Z,22.67
2019-04-06T12:12:35.414Z,24.27
2019-04-06T12:15:23.143Z,19.90
2019-04-06T12:18:02.485Z,20.50
2019-04-06T12:20:43.965Z,22.00
2019-04-06T12:23:33.448Z,20.72
2019-04-06T12:26:21.141Z,22.22
2019-04-06T12:29:10.677Z,21.77
2019-04-06T12:32:08.410Z,18.92
2019-04-06T12:34:51.233Z,20.85
2019-04-06T12:37:39.782Z,24.18
2019-04-06T12:40:34.393Z,20.27
2019-04-06T12:43:10.648Z,21.12
2019-04-06T12:45:52.674Z,20.57
2019-04-06T12:48:39.805Z,22.22
2019-04-06T12:51:20.661Z,22.70
2019-04-06T12:53:58.938Z,18.23
2019-04-06T12:56:47.278Z,18.92
2019-04-06T12:59:30.025Z,18.37
2019-04-06T13:02:21.270Z,19.00
2019-04-06T13:05:13.064Z,19.95
2019-04-06T13:07:59.824Z,16.20
2019-04-06T13:10:46.830Z,16.45
2019-04-06T13:13:31.905Z,16.10
2019-04-06T13:16:20.997Z,16.60
2019-04-06T13:19:08.166Z,17.80
2019-04-06T13:21:56.456Z,15.00
2019-04-06T13:24:34.755Z,16.17
2019-04-06T13:28:02.152Z,15.85
2019-04-06T13:30:39.514Z,17.32
2019-04-06T13:33:43.592Z,15.55
2019-04-06T13:36:30.561Z,12.73
2019-04-06T13:39:25.589Z,14.13
2019-04-06T13:42:26.672Z,13.43
2019-04-06T13:45:02.912Z,15.60
2019-04-06T13:47:47.007Z,13.83
2019-04-06T13:50:30.446Z,14.18
2019-04-06T13:53:34.025Z,17.12
2019-04-06T13:56:22.336Z,14.75
2019-04-06T13:58:56.745Z,13.45
2019-04-06T14:01:40.594Z,13.95
2019-04-06T14:04:28.053Z,15.43
2019-04-06T14:07:22.525Z,14.63
2019-04-06T14:10:13.864Z,14.15
2019-04-06T14:12:53.480Z,14.33
2019-04-06T14:15:31.363Z,14.87
2019-04-06T14:18:18.707Z,14.00
2019-04-06T14:21:05.603Z,15.18
2019-04-06T14:23:49.007Z,15.43
2019-04-06T14:26:38.229Z,13.08
2019-04-06T14:29:13.766Z,13.35
2019-04-06T14:31:55.087Z,16.23
2019-04-06T14:34:54.247Z,13.72
2019-04-06T14:37:57.864Z,14.03
2019-04-06T14:40:43.622Z,15.58
2019-04-06T14:43:30.540Z,15.55
2019-04-06T14:46:15.609Z,15.28
2019-04-06T14:49:13.582Z,17.23
2019-04-06T14:51:47.047Z,16.02
2019-04-06T14:54:33.528Z,14.35
2019-04-06T14:57:24.817Z,14.63
2019-04-06T15:00:11.992Z,14.33
2019-04-06T15:02:58.253Z,13.70
2019-04-06T15:05:51.993Z,14.53
2019-04-06T15:08:38.455Z,14.00
2019-04-06T15:11:18.327Z,14.40
2019-04-06T15:16:52.887Z,13.18
2019-04-06T15:19:46.992Z,13.60
2019-04-06T15:22:27.546Z,13.93
2019-04-06T15:25:08.303Z,12.18
2019-04-06T15:27:52.349Z,12.93
2019-04-06T15:30:43.836Z,12.58
2019-04-06T15:33:38.063Z,12.28
2019-04-06T15:36:32.959Z,12.90
2019-04-06T15:39:11.270Z,14.23
2019-04-06T15:41:58.721Z,14.98
2019-04-06T15:44:45.027Z,14.05
2019-04-06T15:47:36.743Z,13.78
2019-04-06T15:50:17.049Z,12.80
2019-04-06T15:53:10.952Z,12.07
2019-04-06T15:55:53.687Z,12.30
2019-04-06T15:58:42.247Z,12.25
2019-04-06T16:01:39.723Z,12.73
2019-04-06T16:04:23.074Z,12.58
2019-04-06T16:07:14.243Z,12.23
2019-04-06T16:10:06.296Z,11.33
2019-04-06T16:12:51.684Z,12.75
2019-04-06T16:15:26.216Z,11.80
2019-04-06T16:18:13.317Z,11.25
2019-04-06T16:20:48.607Z,11.83
2019-04-06T16:23:39.700Z,13.22
2019-04-06T16:26:31.431Z,12.85
2019-04-06T16:29:22.714Z,13.78
2019-04-06T16:32:31.009Z,11.85
2019-04-06T16:35:18.987Z,12.37
2019-04-06T16:38:02.171Z,12.20
2019-04-06T16:40:53.902Z,13.13
2019-04-06T16:43:44.734Z,14.45
2019-04-06T16:46:27.873Z,13.38
2019-04-06T16:49:07.848Z,10.90
2019-04-06T16:54:25.185Z,12.03
2019-04-06T16:57:08.401Z,12.75
2019-04-06T16:59:45.566Z,12.95
2019-04-06T17:02:52.336Z,12.13
2019-04-06T17:05:46.111Z,12.55
2019-04-06T17:08:37.236Z,12.98
2019-04-06T17:11:19.861Z,13.90
2019-04-06T17:14:16.264Z,15.83
2019-04-06T17:17:04.167Z,13.20
2019-04-06T17:19:55.173Z,15.70
2019-04-06T17:22:46.509Z,14.33
2019-04-06T17:25:27.261Z,12.82
2019-04-06T17:28:11.711Z,15.63
2019-04-06T17:30:59.041Z,15.08
2019-04-06T17:33:37.838Z,14.75
2019-04-06T17:36:18.015Z,15.48
2019-04-06T17:39:08.565Z,13.93
2019-04-06T17:41:48.896Z,15.78
2019-04-06T17:44:48.130Z,14.45
2019-04-06T17:47:31.341Z,15.25
2019-04-06T17:50:16.493Z,14.93
2019-04-06T17:53:07.524Z,14.65
2019-04-06T17:56:04.829Z,15.18
2019-04-06T17:59:18.059Z,15.90
2019-04-06T18:02:01.088Z,14.50
2019-04-06T18:04:59.727Z,16.42
2019-04-06T18:07:40.918Z,14.63
2019-04-06T18:10:32.394Z,17.48
2019-04-06T18:13:19.770Z,16.73
2019-04-06T18:15:49.563Z,16.30
2019-04-06T18:18:35.222Z,15.03
2019-04-06T18:21:26.023Z,15.98
2019-04-06T18:23:55.404Z,14.65
2019-04-06T18:26:24.929Z,17.20
2019-04-06T18:28:55.639Z,17.25
2019-04-06T18:31:42.496Z,16.65
2019-04-06T18:34:12.625Z,18.23
2019-04-06T18:37:10.483Z,17.37
2019-04-06T18:39:40.322Z,16.05
2019-04-06T18:42:11.841Z,16.20
2019-04-06T18:44:41.182Z,15.45
2019-04-06T18:47:11.081Z,14.83
2019-04-06T18:49:40.839Z,15.38
2019-04-06T18:52:10.073Z,16.35
2019-04-06T18:54:39.631Z,14.23
2019-04-06T18:57:09.145Z,15.00
2019-04-06T18:59:38.476Z,16.40
2019-04-06T19:02:07.773Z,15.33
2019-04-06T19:04:37.374Z,15.47
2019-04-06T19:07:07.048Z,15.48
2019-04-06T19:09:36.209Z,14.43
2019-04-06T19:12:05.625Z,16.27
2019-04-06T19:14:34.816Z,14.07
2019-04-06T19:17:09.985Z,14.37
2019-04-06T19:19:39.641Z,17.25
2019-04-06T19:22:09.369Z,16.15
2019-04-06T19:24:38.833Z,16.30
2019-04-06T19:27:08.854Z,15.43
2019-04-06T19:32:07.587Z,17.77
2019-04-06T19:34:37.198Z,14.20
2019-04-06T19:37:08.761Z,16.82
2019-04-06T19:39:37.650Z,16.87
2019-04-06T19:42:09.439Z,15.45
2019-04-06T19:44:38.666Z,15.30
2019-04-06T19:47:10.005Z,15.93
2019-04-06T19:49:41.419Z,16.32
2019-04-06T19:52:10.761Z,16.35
2019-04-06T19:54:42.779Z,16.57
2019-04-06T19:57:12.385Z,17.35
2019-04-06T19:59:41.609Z,13.32
2019-04-06T20:02:11.019Z,14.67
2019-04-06T20:04:51.219Z,15.68
2019-04-06T20:07:20.702Z,16.07
2019-04-06T20:09:53.086Z,18.32
2019-04-06T20:12:22.790Z,16.67
2019-04-06T20:14:54.789Z,15.70
2019-04-06T20:17:25.123Z,15.38
2019-04-06T20:19:55.294Z,14.65
2019-04-06T20:22:25.363Z,16.60
2019-04-06T20:24:54.581Z,16.42
2019-04-06T20:27:26.589Z,15.03
2019-04-06T20:29:56.606Z,16.50
2019-04-06T20:32:26.592Z,16.32
2019-04-06T20:34:56.273Z,14.93
2019-04-06T20:37:26.323Z,16.02
2019-04-06T20:42:27.532Z,15.75
2019-04-06T20:44:59.156Z,16.17
2019-04-06T20:47:29.285Z,15.88
2019-04-06T20:52:31.691Z,15.05
2019-04-06T20:57:29.797Z,15.40
2019-04-06T20:59:59.533Z,17.73
2019-04-06T21:02:29.359Z,14.25
2019-04-06T21:05:00.902Z,15.53
2019-04-06T21:07:29.910Z,16.45
2019-04-06T21:09:59.411Z,15.43
2019-04-06T21:12:28.738Z,15.58
2019-04-06T21:14:58.821Z,15.25
2019-04-06T21:20:01.643Z,16.20
2019-04-06T21:22:31.302Z,17.52
2019-04-06T21:25:00.772Z,14.87
2019-04-06T21:27:31.436Z,15.03
2019-04-06T21:30:01.017Z,14.23
2019-04-06T21:32:30.432Z,16.82
2019-04-06T21:35:04.619Z,17.30
2019-04-06T21:37:35.952Z,15.43
2019-04-06T21:40:06.637Z,17.42
2019-04-06T21:42:36.807Z,16.17
2019-04-06T21:45:07.690Z,15.90
2019-04-06T21:47:38.692Z,15.50
2019-04-06T21:50:08.732Z,14.55
2019-04-06T21:52:38.820Z,15.70
2019-04-06T21:57:38.801Z,18.07
2019-04-06T22:00:51.403Z,14.20
2019-04-06T22:03:21.073Z,16.80
2019-04-06T22:05:50.553Z,17.92
2019-04-06T22:08:20.318Z,19.02
2019-04-06T22:10:50.162Z,16.00
2019-04-06T22:13:19.617Z,16.90
2019-04-06T22:15:48.950Z,15.72
2019-04-06T22:18:18.305Z,16.57
2019-04-06T22:20:47.498Z,16.30
2019-04-06T22:23:16.746Z,16.83
2019-04-06T22:25:47.976Z,17.90
2019-04-06T22:28:17.767Z,16.60
2019-04-06T22:30:47.022Z,19.57
2019-04-06T22:33:16.378Z,18.80
2019-04-06T22:35:48.947Z,15.77
2019-04-06T22:38:18.539Z,17.50
2019-04-06T22:40:48.549Z,17.12
2019-04-06T22:45:48.069Z,17.48
2019-04-06T22:48:19.696Z,19.05
2019-04-06T22:50:50.982Z,17.67
2019-04-06T22:53:22.585Z,16.77
2019-04-06T22:55:52.279Z,18.02
2019-04-06T22:58:22.397Z,17.07
2019-04-06T23:01:00.088Z,17.92
2019-04-06T23:03:48.679Z,19.50
2019-04-06T23:06:25.461Z,14.93
2019-04-06T23:08:56.753Z,15.35
2019-04-06T23:11:27.562Z,17.27
2019-04-06T23:14:00.835Z,16.27
2019-04-06T23:16:30.198Z,17.00
2019-04-06T23:19:00.293Z,17.87
2019-04-06T23:21:29.801Z,16.52
2019-04-06T23:23:59.570Z,16.02
2019-04-06T23:26:31.643Z,17.42
2019-04-06T23:29:01.778Z,16.82
2019-04-06T23:34:01.135Z,17.65
2019-04-06T23:36:31.216Z,18.12
2019-04-06T23:39:01.074Z,17.25
2019-04-06T23:41:31.208Z,18.70
2019-04-06T23:49:02.297Z,16.10
2019-04-06T23:51:32.083Z,21.12
2019-04-06T23:54:01.948Z,17.92
2019-04-06T23:56:31.440Z,17.20
2019-04-06T23:59:01.647Z,17.65
